createdAt,value
2019-01-02T00:00:04.317Z,3.40
2019-01-02T00:02:32.845Z,3.93
2019-01-02T00:05:01.095Z,4.83
2019-01-02T00:07:29.655Z,4.27
2019-01-02T00:09:57.906Z,4.23
2019-01-02T00:12:26.283Z,3.93
2019-01-02T00:14:54.060Z,3.67
2019-01-02T00:17:21.815Z,3.30
2019-01-02T00:19:50.300Z,3.53
2019-01-02T00:22:18.806Z,3.63
2019-01-02T00:24:48.758Z,3.30
2019-01-02T00:27:16.995Z,1.77
2019-01-02T00:29:47.121Z,0.90
2019-01-02T00:32:14.882Z,0.90
2019-01-02T00:34:44.251Z,1.30
2019-01-02T00:37:12.691Z,1.47
2019-01-02T00:39:41.097Z,1.60
2019-01-02T00:42:09.182Z,2.10
2019-01-02T00:44:37.839Z,1.73
2019-01-02T00:47:05.953Z,2.17
2019-01-02T00:49:33.785Z,2.30
2019-01-02T00:52:01.855Z,2.60
2019-01-02T00:54:30.354Z,1.80
2019-01-02T00:56:58.765Z,2.47
2019-01-02T00:59:27.217Z,2.63
2019-01-02T01:01:55.046Z,1.53
2019-01-02T01:04:25.424Z,2.20
2019-01-02T01:06:53.837Z,2.27
2019-01-02T01:12:18.820Z,1.93
2019-01-02T01:14:46.589Z,2.50
2019-01-02T01:17:15.228Z,2.10
2019-01-02T01:19:43.627Z,2.17
2019-01-02T01:22:14.055Z,1.97
2019-01-02T01:24:42.695Z,1.90
2019-01-02T01:27:11.585Z,2.63
2019-01-02T01:29:40.166Z,2.00
2019-01-02T01:32:08.287Z,2.37
2019-01-02T01:34:38.277Z,2.03
2019-01-02T01:37:06.460Z,2.57
2019-01-02T01:39:34.846Z,3.03
2019-01-02T01:42:02.301Z,1.70
2019-01-02T01:44:30.782Z,2.53
2019-01-02T01:47:01.140Z,2.00
2019-01-02T01:49:29.593Z,2.00
2019-01-02T01:51:57.545Z,2.20
2019-01-02T01:54:25.745Z,1.90
2019-01-02T01:56:54.305Z,1.83
2019-01-02T01:59:22.822Z,1.90
2019-01-02T02:01:51.115Z,2.43
2019-01-02T02:04:18.943Z,2.37
2019-01-02T02:06:49.021Z,1.83
2019-01-02T02:09:16.863Z,2.30
2019-01-02T02:11:46.563Z,2.50
2019-01-02T02:17:29.116Z,2.53
2019-01-02T02:19:56.488Z,2.37
2019-01-02T02:22:26.550Z,2.60
2019-01-02T02:24:54.783Z,2.13
2019-01-02T02:27:22.860Z,2.87
2019-01-02T02:29:50.956Z,2.50
2019-01-02T02:32:19.110Z,2.60
2019-01-02T02:34:47.555Z,2.27
2019-01-02T02:37:15.975Z,2.20
2019-01-02T02:39:44.667Z,3.00
2019-01-02T02:42:13.274Z,2.23
2019-01-02T02:44:42.042Z,2.20
2019-01-02T02:47:10.452Z,2.40
2019-01-02T02:49:38.613Z,2.30
2019-01-02T02:52:07.202Z,1.90
2019-01-02T02:54:35.395Z,2.53
2019-01-02T02:57:03.866Z,2.17
2019-01-02T02:59:32.285Z,2.50
2019-01-02T03:02:00.630Z,2.70
2019-01-02T03:04:30.579Z,2.00
2019-01-02T03:06:58.932Z,2.50
2019-01-02T03:09:29.319Z,2.40
2019-01-02T03:11:57.135Z,2.80
2019-01-02T03:14:25.610Z,2.07
2019-01-02T03:16:54.517Z,2.33
2019-01-02T03:19:24.398Z,1.97
2019-01-02T03:21:54.769Z,2.73
2019-01-02T03:24:22.949Z,2.70
2019-01-02T03:26:51.137Z,2.63
2019-01-02T03:29:18.904Z,1.90
2019-01-02T03:31:48.517Z,2.20
2019-01-02T03:34:16.588Z,1.83
2019-01-02T03:36:43.974Z,2.40
2019-01-02T03:39:12.351Z,1.90
2019-01-02T03:41:40.825Z,1.70
2019-01-02T03:44:09.000Z,1.90
2019-01-02T03:46:36.713Z,2.13
2019-01-02T03:49:05.160Z,1.87
2019-01-02T03:51:33.640Z,2.10
2019-01-02T03:54:02.042Z,2.00
2019-01-02T03:56:29.830Z,1.90
2019-01-02T03:58:58.285Z,2.30
2019-01-02T04:01:26.776Z,2.27
2019-01-02T04:03:54.455Z,2.63
2019-01-02T04:06:22.626Z,2.10
2019-01-02T04:08:51.038Z,2.23
2019-01-02T04:11:19.192Z,2.40
2019-01-02T04:13:47.402Z,2.07
2019-01-02T04:16:15.912Z,1.60
2019-01-02T04:18:44.126Z,1.80
2019-01-02T04:21:11.511Z,1.80
2019-01-02T04:23:39.670Z,2.00
2019-01-02T04:26:27.141Z,2.30
2019-01-02T04:28:54.935Z,2.40
2019-01-02T04:31:22.730Z,1.50
2019-01-02T04:33:51.168Z,2.03
2019-01-02T04:36:19.311Z,1.50
2019-01-02T04:38:47.792Z,2.30
2019-01-02T04:41:16.158Z,2.50
2019-01-02T04:43:44.759Z,2.37
2019-01-02T04:46:12.828Z,2.10
2019-01-02T04:48:40.941Z,2.57
2019-01-02T04:51:09.003Z,2.53
2019-01-02T04:53:36.763Z,2.50
2019-01-02T04:56:04.599Z,2.07
2019-01-02T04:58:32.807Z,2.27
2019-01-02T05:01:00.996Z,2.03
2019-01-02T05:03:29.387Z,2.20
2019-01-02T05:05:57.177Z,2.23
2019-01-02T05:08:25.385Z,2.33
2019-01-02T05:10:53.772Z,2.50
2019-01-02T05:13:21.886Z,2.67
2019-01-02T05:15:50.383Z,3.33
2019-01-02T05:18:18.790Z,2.43
2019-01-02T05:20:47.172Z,3.40
2019-01-02T05:23:15.715Z,2.70
2019-01-02T05:25:44.109Z,3.20
2019-01-02T05:28:12.232Z,3.00
2019-01-02T05:30:39.676Z,2.77
2019-01-02T05:33:07.858Z,2.10
2019-01-02T05:35:36.525Z,2.53
2019-01-02T05:38:04.727Z,2.57
2019-01-02T05:40:32.780Z,3.03
2019-01-02T05:43:00.850Z,3.03
2019-01-02T05:45:28.937Z,2.73
2019-01-02T05:47:57.107Z,2.10
2019-01-02T05:50:25.215Z,3.20
2019-01-02T05:52:53.721Z,2.47
2019-01-02T05:55:22.278Z,2.90
2019-01-02T05:57:50.726Z,3.43
2019-01-02T06:00:18.859Z,2.57
2019-01-02T06:02:47.266Z,3.50
2019-01-02T06:05:15.603Z,3.07
2019-01-02T06:07:44.126Z,3.23
2019-01-02T06:10:14.347Z,5.80
2019-01-02T06:12:42.197Z,4.90
2019-01-02T06:15:12.446Z,4.60
2019-01-02T06:17:40.199Z,2.97
2019-01-02T06:20:10.166Z,2.77
2019-01-02T06:22:38.697Z,4.37
2019-01-02T06:25:06.884Z,4.47
2019-01-02T06:27:34.542Z,4.43
2019-01-02T06:30:03.138Z,4.37
2019-01-02T06:32:30.933Z,4.03
2019-01-02T06:34:59.103Z,4.77
2019-01-02T06:37:27.159Z,5.73
2019-01-02T06:39:55.347Z,5.07
2019-01-02T06:42:23.024Z,5.13
2019-01-02T06:44:51.603Z,5.40
2019-01-02T06:47:19.285Z,6.90
2019-01-02T06:49:47.757Z,6.70
2019-01-02T06:52:15.119Z,5.00
2019-01-02T06:54:43.800Z,8.33
2019-01-02T06:57:12.300Z,10.67
2019-01-02T06:59:40.517Z,9.17
2019-01-02T07:02:08.963Z,10.10
2019-01-02T07:04:37.137Z,4.20
2019-01-02T07:07:05.634Z,6.43
2019-01-02T07:09:33.700Z,5.07
2019-01-02T07:12:02.278Z,4.37
2019-01-02T07:14:30.769Z,5.10
2019-01-02T07:16:59.217Z,4.77
2019-01-02T07:19:26.669Z,3.50
2019-01-02T07:21:54.778Z,3.53
2019-01-02T07:24:22.978Z,5.20
2019-01-02T07:26:51.489Z,4.13
2019-01-02T07:29:19.969Z,4.57
2019-01-02T07:31:47.788Z,3.00
2019-01-02T07:34:54.289Z,3.43
2019-01-02T07:38:00.503Z,2.50
2019-01-02T07:41:06.895Z,3.23
2019-01-02T07:44:13.439Z,3.73
2019-01-02T07:47:20.038Z,3.03
2019-01-02T07:50:26.546Z,3.77
2019-01-02T07:53:33.169Z,3.30
2019-01-02T07:56:39.697Z,3.50
2019-01-02T07:59:40.672Z,3.83
2019-01-02T08:02:47.196Z,5.00
2019-01-02T08:05:53.218Z,3.20
2019-01-02T08:08:59.788Z,4.33
2019-01-02T08:12:06.399Z,3.60
2019-01-02T08:15:03.674Z,3.80
2019-01-02T08:17:54.644Z,4.17
2019-01-02T08:20:52.072Z,3.20
2019-01-02T08:23:58.710Z,3.43
2019-01-02T08:27:05.410Z,3.30
2019-01-02T08:30:11.977Z,6.07
2019-01-02T08:33:18.519Z,3.00
2019-01-02T08:36:25.130Z,3.33
2019-01-02T08:39:31.841Z,4.17
2019-01-02T08:42:32.774Z,3.77
2019-01-02T08:45:27.089Z,3.77
2019-01-02T08:48:33.322Z,4.70
2019-01-02T08:51:39.600Z,3.60
2019-01-02T08:54:46.217Z,4.27
2019-01-02T08:57:48.738Z,4.73
2019-01-02T09:00:54.999Z,3.50
2019-01-02T09:04:01.514Z,5.27
2019-01-02T09:07:07.503Z,4.00
2019-01-02T09:10:03.443Z,3.30
2019-01-02T09:13:04.538Z,2.93
2019-01-02T09:16:11.120Z,3.67
2019-01-02T09:19:17.384Z,4.60
2019-01-02T09:22:23.995Z,4.63
2019-01-02T09:25:30.233Z,4.60
2019-01-02T09:28:36.787Z,4.87
2019-01-02T09:31:34.754Z,3.53
2019-01-02T09:34:26.898Z,2.97
2019-01-02T09:37:33.448Z,3.53
2019-01-02T09:40:26.483Z,4.30
2019-01-02T09:43:33.132Z,5.50
2019-01-02T09:46:39.689Z,4.70
2019-01-02T09:49:18.714Z,6.43
2019-01-02T09:52:24.924Z,5.33
2019-01-02T09:55:31.188Z,6.47
2019-01-02T09:58:37.443Z,6.30
2019-01-02T10:01:43.989Z,5.80
2019-01-02T10:04:50.247Z,4.00
2019-01-02T10:07:56.882Z,4.57
2019-01-02T10:11:03.434Z,4.00
2019-01-02T10:14:09.671Z,8.27
2019-01-02T10:17:01.038Z,6.20
2019-01-02T10:20:07.321Z,3.70
2019-01-02T10:23:00.494Z,4.03
2019-01-02T10:26:07.072Z,3.53
2019-01-02T10:29:13.393Z,4.63
2019-01-02T10:32:10.073Z,4.13
2019-01-02T10:35:04.428Z,3.50
2019-01-02T10:38:10.940Z,5.10
2019-01-02T10:40:52.379Z,4.07
2019-01-02T10:43:58.949Z,3.60
2019-01-02T10:47:04.928Z,5.33
2019-01-02T10:50:11.475Z,3.80
2019-01-02T10:53:18.012Z,5.03
2019-01-02T10:56:24.560Z,5.03
2019-01-02T10:59:19.344Z,4.50
2019-01-02T11:02:25.871Z,4.73
2019-01-02T11:05:32.163Z,3.70
2019-01-02T11:08:38.494Z,3.90
2019-01-02T11:11:44.486Z,5.13
2019-01-02T11:14:45.045Z,3.93
2019-01-02T11:17:37.948Z,4.57
2019-01-02T11:20:36.014Z,4.13
2019-01-02T11:23:42.621Z,4.30
2019-01-02T11:26:49.178Z,5.67
2019-01-02T11:29:55.716Z,4.70
2019-01-02T11:33:01.709Z,4.00
2019-01-02T11:35:59.921Z,3.83
2019-01-02T11:39:00.532Z,4.00
2019-01-02T11:41:53.990Z,3.33
2019-01-02T11:45:00.270Z,4.80
2019-01-02T11:47:28.208Z,4.83
2019-01-02T11:49:56.359Z,5.53
2019-01-02T11:52:25.542Z,3.50
2019-01-02T11:54:53.680Z,3.97
2019-01-02T11:57:22.260Z,3.67
2019-01-02T11:59:50.554Z,4.13
2019-01-02T12:02:19.145Z,3.53
2019-01-02T12:04:47.314Z,4.43
2019-01-02T12:07:15.531Z,4.40
2019-01-02T12:09:43.380Z,4.17
2019-01-02T12:12:12.002Z,3.50
2019-01-02T12:14:40.134Z,3.23
2019-01-02T12:17:08.843Z,4.53
2019-01-02T12:19:37.019Z,5.70
2019-01-02T12:22:05.544Z,3.53
2019-01-02T12:24:33.677Z,4.63
2019-01-02T12:27:02.208Z,3.37
2019-01-02T12:29:30.279Z,4.03
2019-01-02T12:31:58.416Z,3.83
2019-01-02T12:34:26.098Z,4.20
2019-01-02T12:36:55.066Z,3.37
2019-01-02T12:39:23.438Z,3.80
2019-01-02T12:41:51.834Z,3.60
2019-01-02T12:44:20.353Z,3.43
2019-01-02T12:46:49.154Z,3.93
2019-01-02T12:49:18.392Z,3.00
2019-01-02T12:51:47.094Z,3.67
2019-01-02T12:54:15.156Z,4.10
2019-01-02T12:56:43.394Z,3.70
2019-01-02T12:59:52.672Z,5.10
2019-01-02T13:02:59.360Z,4.73
2019-01-02T13:05:50.420Z,4.67
2019-01-02T13:08:56.994Z,3.37
2019-01-02T13:11:48.116Z,3.93
2019-01-02T13:14:54.387Z,4.20
2019-01-02T13:17:50.409Z,4.40
2019-01-02T13:20:56.973Z,3.13
2019-01-02T13:24:03.291Z,5.83
2019-01-02T13:27:09.893Z,4.93
2019-01-02T13:30:16.084Z,4.30
2019-01-02T13:33:22.713Z,4.20
2019-01-02T13:36:28.975Z,4.80
2019-01-02T13:39:21.426Z,4.80
2019-01-02T13:42:12.289Z,4.73
2019-01-02T13:45:18.900Z,5.00
2019-01-02T13:48:25.464Z,4.60
2019-01-02T13:51:31.745Z,4.37
2019-01-02T13:54:00.134Z,4.00
2019-01-02T13:56:29.065Z,5.07
2019-01-02T13:58:57.250Z,4.97
2019-01-02T14:01:25.893Z,5.20
2019-01-02T14:03:56.808Z,5.23
2019-01-02T14:06:25.031Z,3.83
2019-01-02T14:08:53.133Z,4.07
2019-01-02T14:11:21.314Z,4.47
2019-01-02T14:13:49.750Z,4.17
2019-01-02T14:16:18.260Z,6.17
2019-01-02T14:18:47.509Z,7.03
2019-01-02T14:21:14.949Z,11.70
2019-01-02T14:23:42.387Z,8.33
2019-01-02T14:26:10.515Z,6.30
2019-01-02T14:28:38.676Z,8.10
2019-01-02T14:31:07.801Z,6.33
2019-01-02T14:33:36.374Z,6.43
2019-01-02T14:36:04.504Z,5.00
2019-01-02T14:38:32.754Z,4.70
2019-01-02T14:41:00.840Z,4.50
2019-01-02T14:43:28.626Z,4.43
2019-01-02T14:45:56.982Z,4.00
2019-01-02T14:48:25.100Z,4.60
2019-01-02T14:50:53.673Z,4.40
2019-01-02T14:53:21.388Z,4.93
2019-01-02T14:55:49.997Z,5.17
2019-01-02T14:58:18.544Z,5.30
2019-01-02T15:00:47.146Z,5.50
2019-01-02T15:03:15.701Z,3.90
2019-01-02T15:05:44.251Z,5.70
2019-01-02T15:08:12.726Z,4.90
2019-01-02T15:10:41.311Z,6.80
2019-01-02T15:13:09.450Z,4.67
2019-01-02T15:15:38.013Z,5.27
2019-01-02T15:18:06.369Z,5.47
2019-01-02T15:20:34.530Z,8.90
2019-01-02T15:23:02.823Z,8.63
2019-01-02T15:25:31.010Z,8.43
2019-01-02T15:27:58.499Z,6.37
2019-01-02T15:30:45.671Z,5.33
2019-01-02T15:33:13.870Z,6.80
2019-01-02T15:35:41.629Z,6.07
2019-01-02T15:38:09.514Z,4.80
2019-01-02T15:40:38.029Z,5.27
2019-01-02T15:43:06.184Z,5.03
2019-01-02T15:45:34.357Z,7.03
2019-01-02T15:48:02.481Z,4.67
2019-01-02T15:50:30.315Z,4.60
2019-01-02T15:52:58.486Z,5.00
2019-01-02T15:55:26.698Z,5.13
2019-01-02T15:57:55.358Z,5.40
2019-01-02T16:00:23.129Z,21.00
2019-01-02T16:02:50.904Z,14.33
2019-01-02T16:05:18.396Z,15.50
2019-01-02T16:07:46.957Z,10.90
2019-01-02T16:10:15.117Z,8.93
2019-01-02T16:12:46.631Z,6.07
2019-01-02T16:15:13.027Z,5.50
2019-01-02T16:17:41.214Z,4.90
2019-01-02T16:20:09.933Z,4.70
2019-01-02T16:22:38.780Z,4.23
2019-01-02T16:25:07.381Z,5.20
2019-01-02T16:27:36.075Z,4.90
2019-01-02T16:30:43.953Z,4.23
2019-01-02T16:33:11.884Z,3.70
2019-01-02T16:35:40.110Z,3.50
2019-01-02T16:38:08.556Z,3.83
2019-01-02T16:40:36.756Z,4.10
2019-01-02T16:43:04.901Z,4.50
2019-01-02T16:45:32.479Z,6.07
2019-01-02T16:48:00.567Z,5.70
2019-01-02T16:50:28.286Z,7.37
2019-01-02T16:52:56.485Z,6.07
2019-01-02T16:55:24.522Z,4.37
2019-01-02T16:57:53.044Z,6.00
2019-01-02T17:00:20.546Z,4.63
2019-01-02T17:02:48.536Z,4.53
2019-01-02T17:05:16.345Z,5.40
2019-01-02T17:07:44.186Z,5.30
2019-01-02T17:10:12.393Z,5.53
2019-01-02T17:12:41.116Z,5.63
2019-01-02T17:15:09.241Z,4.87
2019-01-02T17:17:37.366Z,6.77
2019-01-02T17:20:06.348Z,5.97
2019-01-02T17:22:34.243Z,5.47
2019-01-02T17:25:02.782Z,5.13
2019-01-02T17:27:31.099Z,6.17
2019-01-02T17:29:58.856Z,4.37
2019-01-02T17:32:26.827Z,4.17
2019-01-02T17:34:54.675Z,3.90
2019-01-02T17:37:22.885Z,4.27
2019-01-02T17:39:51.394Z,4.60
2019-01-02T17:42:19.225Z,4.23
2019-01-02T17:44:47.470Z,6.17
2019-01-02T17:47:15.389Z,4.93
2019-01-02T17:49:43.544Z,5.17
2019-01-02T17:52:11.761Z,3.90
2019-01-02T17:54:40.514Z,4.33
2019-01-02T17:57:09.048Z,4.07
2019-01-02T17:59:36.972Z,3.20
2019-01-02T18:02:05.104Z,6.57
2019-01-02T18:04:33.356Z,4.23
2019-01-02T18:07:01.687Z,3.70
2019-01-02T18:09:30.411Z,4.17
2019-01-02T18:11:58.208Z,3.70
2019-01-02T18:14:26.057Z,2.87
2019-01-02T18:16:54.146Z,3.63
2019-01-02T18:19:22.439Z,3.30
2019-01-02T18:21:50.605Z,3.47
2019-01-02T18:24:19.195Z,3.57
2019-01-02T18:26:47.728Z,4.07
2019-01-02T18:29:16.078Z,3.10
2019-01-02T18:34:17.857Z,4.27
2019-01-02T18:36:46.360Z,3.30
2019-01-02T18:39:15.375Z,2.73
2019-01-02T18:41:43.572Z,2.87
2019-01-02T18:44:11.830Z,3.83
2019-01-02T18:46:40.038Z,3.53
2019-01-02T18:49:08.156Z,3.30
2019-01-02T18:51:36.814Z,3.83
2019-01-02T18:54:05.391Z,3.20
2019-01-02T18:56:33.758Z,4.20
2019-01-02T18:59:02.006Z,3.60
2019-01-02T19:01:29.529Z,13.23
2019-01-02T19:03:58.105Z,7.27
2019-01-02T19:06:26.316Z,3.87
2019-01-02T19:08:54.072Z,3.83
2019-01-02T19:11:21.901Z,6.10
2019-01-02T19:13:50.218Z,4.93
2019-01-02T19:16:21.542Z,3.43
2019-01-02T19:18:48.187Z,4.30
2019-01-02T19:21:16.191Z,6.03
2019-01-02T19:23:44.008Z,3.10
2019-01-02T19:26:12.259Z,3.50
2019-01-02T19:28:40.451Z,3.20
2019-01-02T19:31:09.062Z,3.10
2019-01-02T19:33:37.539Z,3.30
2019-01-02T19:36:05.407Z,3.67
2019-01-02T19:38:33.680Z,3.97
2019-01-02T19:41:02.334Z,4.23
2019-01-02T19:43:30.498Z,4.43
2019-01-02T19:45:59.102Z,5.10
2019-01-02T19:48:27.275Z,4.80
2019-01-02T19:50:56.182Z,4.30
2019-01-02T19:53:24.358Z,8.57
2019-01-02T19:55:52.251Z,4.63
2019-01-02T19:58:20.841Z,5.83
2019-01-02T20:00:48.376Z,5.33
2019-01-02T20:03:16.841Z,3.43
2019-01-02T20:05:45.249Z,4.27
2019-01-02T20:08:13.497Z,3.80
2019-01-02T20:10:41.999Z,4.07
2019-01-02T20:13:10.251Z,3.07
2019-01-02T20:15:38.372Z,3.07
2019-01-02T20:18:06.516Z,3.30
2019-01-02T20:20:34.784Z,4.30
2019-01-02T20:23:03.311Z,4.00
2019-01-02T20:25:31.503Z,4.13
2019-01-02T20:28:00.023Z,4.43
2019-01-02T20:30:28.436Z,3.50
2019-01-02T20:32:56.221Z,3.40
2019-01-02T20:35:23.748Z,2.83
2019-01-02T20:37:51.957Z,3.53
2019-01-02T20:40:20.478Z,4.70
2019-01-02T20:42:48.350Z,2.67
2019-01-02T20:45:16.154Z,6.10
2019-01-02T20:47:47.986Z,5.47
2019-01-02T20:50:14.158Z,2.70
2019-01-02T20:52:42.853Z,2.73
2019-01-02T20:55:11.516Z,3.27
2019-01-02T20:57:40.203Z,3.63
2019-01-02T21:00:10.286Z,5.37
2019-01-02T21:02:38.836Z,3.60
2019-01-02T21:05:07.264Z,3.40
2019-01-02T21:07:36.032Z,3.00
2019-01-02T21:10:05.001Z,3.13
2019-01-02T21:12:33.627Z,3.00
2019-01-02T21:15:02.182Z,3.00
2019-01-02T21:17:30.189Z,2.50
2019-01-02T21:19:59.654Z,2.27
2019-01-02T21:22:28.452Z,2.60
2019-01-02T21:24:56.713Z,4.40
2019-01-02T21:27:25.156Z,3.40
2019-01-02T21:29:52.680Z,2.70
2019-01-02T21:32:20.911Z,2.87
2019-01-02T21:34:49.442Z,3.30
2019-01-02T21:37:17.713Z,3.43
2019-01-02T21:39:46.044Z,4.40
2019-01-02T21:42:14.614Z,4.30
2019-01-02T21:44:42.487Z,3.10
2019-01-02T21:47:10.537Z,4.50
2019-01-02T21:49:38.711Z,5.73
2019-01-02T21:52:06.733Z,3.40
2019-01-02T21:54:34.905Z,6.30
2019-01-02T21:57:03.124Z,6.07
2019-01-02T21:59:31.747Z,4.70
2019-01-02T22:01:59.979Z,4.70
2019-01-02T22:04:28.455Z,3.20
2019-01-02T22:06:57.118Z,3.13
2019-01-02T22:09:26.403Z,3.73
2019-01-02T22:11:54.499Z,3.83
2019-01-02T22:14:23.242Z,3.00
2019-01-02T22:16:51.366Z,3.80
2019-01-02T22:19:19.995Z,4.50
2019-01-02T22:21:48.592Z,3.63
2019-01-02T22:24:17.263Z,4.70
2019-01-02T22:26:45.007Z,3.17
2019-01-02T22:29:13.392Z,3.93
2019-01-02T22:31:41.907Z,3.50
2019-01-02T22:34:10.004Z,3.03
2019-01-02T22:36:38.561Z,3.00
2019-01-02T22:39:06.690Z,4.53
2019-01-02T22:41:34.474Z,2.90
2019-01-02T22:44:02.693Z,2.80
2019-01-02T22:46:31.247Z,1.90
2019-01-02T22:48:59.017Z,2.57
2019-01-02T22:51:27.257Z,2.27
2019-01-02T22:53:55.708Z,2.77
2019-01-02T22:56:23.965Z,2.67
2019-01-02T22:58:52.467Z,2.37
2019-01-02T23:01:39.354Z,2.63
2019-01-02T23:04:26.746Z,1.90
2019-01-02T23:07:14.002Z,2.23
2019-01-02T23:10:00.964Z,2.40
2019-01-02T23:12:48.311Z,2.67
2019-01-02T23:15:35.191Z,2.50
2019-01-02T23:18:23.406Z,2.33
2019-01-02T23:21:10.977Z,2.20
2019-01-02T23:23:58.555Z,2.00
2019-01-02T23:26:46.249Z,2.33
2019-01-02T23:29:33.706Z,3.03
2019-01-02T23:32:21.132Z,1.97
2019-01-02T23:35:08.405Z,3.13
2019-01-02T23:37:55.985Z,3.07
2019-01-02T23:40:43.266Z,2.87
2019-01-02T23:43:30.491Z,2.40
2019-01-02T23:46:18.111Z,4.30
2019-01-02T23:49:05.734Z,2.47
2019-01-02T23:51:53.348Z,3.43
2019-01-02T23:54:40.689Z,3.20
2019-01-02T23:57:28.011Z,3.30
